Terminal Aerodrome Forecast
Issued by NWS Dodge City, KS

Home | Current Version | Previous Version | Text Only | Print | Product List | Glossary On
Versions: 1 2 3 4 5 6 7 8 9 10 11 12 13 14 15 16 17 18 19 20 21 22 23 24 25 26 27 28 29
000
FTUS43 KDDC 210842 AAB
TAFDDC
TAF AMD
KDDC 210842Z 2109/2206 09008KT P6SM OVC050
      TEMPO 2110/2114 -SHRA
     FM211500 09019G27KT 3SM SHRA BR OVC020
     FM211700 05010KT 3SM SHRA BR OVC010
     FM212200 01015G23KT 2SM SHRA BR OVC008
     FM220000 36016G24KT 4SM BR OVC008=

USA.gov is the U.S. government's official web portal to all federal, state and local government web resources and services.